Time;durP1;ratioP1;P1;durP2;ratioP2;P2;SDS_P1;SDS_P2;PMS_P1;PMS_P2;Temp;Humidity;BMP_temperature;BMP_pressure;BME280_temperature;BME280_humidity;BME280_pressure;Samples;Min_cycle;Max_cycle;Signal;HPM_P1;HPM_P2
2023/08/22 00:01:59;;;;;;;6.45;2.70;;;16.30;99.90;;;;;;4987787;28;20465;-68
2023/08/22 00:04:25;;;;;;;8.40;2.72;;;;;;;;;;4986833;28;20045;-68
2023/08/22 00:06:51;;;;;;;12.68;4.53;;;;;;;;;;5003099;28;20050;-68
2023/08/22 00:09:17;;;;;;;7.32;2.58;;;;;;;;;;5004672;28;20053;-67
2023/08/22 00:11:42;;;;;;;5.03;3.13;;;16.50;99.90;;;;;;5000855;28;20084;-68
2023/08/22 00:14:08;;;;;;;6.72;4.15;;;;;;;;;;5006637;28;20077;-67
2023/08/22 00:16:34;;;;;;;10.20;3.72;;;16.60;99.90;;;;;;4986465;28;20112;-67
2023/08/22 00:19:00;;;;;;;9.60;4.75;;;16.80;99.90;;;;;;5003088;28;20408;-68
2023/08/22 00:21:26;;;;;;;8.30;4.18;;;;;;;;;;5004983;28;21520;-67
2023/08/22 00:23:52;;;;;;;10.73;3.95;;;;;;;;;;4986755;28;20053;-67
2023/08/22 00:26:18;;;;;;;10.45;4.55;;;16.60;99.90;;;;;;4985234;28;20388;-68
2023/08/22 00:28:44;;;;;;;6.22;3.47;;;;;;;;;;4971836;28;20054;-68
2023/08/22 00:31:10;;;;;;;6.28;2.85;;;;;;;;;;5003954;28;20045;-68
2023/08/22 00:33:36;;;;;;;5.55;2.55;;;;;;;;;;5002450;28;20528;-67
2023/08/22 00:36:01;;;;;;;7.45;2.63;;;16.70;99.90;;;;;;4985764;28;20050;-68
2023/08/22 00:38:28;;;;;;;7.97;2.83;;;16.50;99.90;;;;;;4986292;28;20050;-68
2023/08/22 00:40:54;;;;;;;6.47;3.70;;;16.50;99.90;;;;;;4987394;28;20512;-68
2023/08/22 00:43:19;;;;;;;11.65;4.25;;;16.40;99.90;;;;;;4986359;28;20042;-68
2023/08/22 00:45:45;;;;;;;6.10;3.35;;;;;;;;;;4986788;28;20042;-68
2023/08/22 00:48:11;;;;;;;9.38;4.30;;;;;;;;;;5002222;28;20053;-67
2023/08/22 00:50:37;;;;;;;6.30;2.53;;;16.40;99.90;;;;;;5002988;28;20416;-67
2023/08/22 00:53:03;;;;;;;6.63;2.42;;;;;;;;;;5005107;28;20038;-69
2023/08/22 00:55:29;;;;;;;7.25;3.00;;;;;;;;;;4982395;28;20050;-67
2023/08/22 00:57:55;;;;;;;8.02;2.70;;;;;;;;;;4979539;28;20053;-67
2023/08/22 01:00:21;;;;;;;9.80;4.22;;;;;;;;;;4985841;28;20041;-68
2023/08/22 01:02:47;;;;;;;14.65;4.65;;;16.70;99.90;;;;;;4995808;28;20042;-67
2023/08/22 01:05:13;;;;;;;7.20;4.03;;;;;;;;;;4985909;28;20049;-67
2023/08/22 01:07:55;;;;;;;10.90;3.90;;;17.00;99.90;;;;;;5003096;28;20045;-68
2023/08/22 01:10:33;;;;;;;12.43;4.80;;;17.10;99.90;;;;;;4982658;28;20074;-67
2023/08/22 01:13:07;;;;;;;14.52;5.80;;;17.10;99.90;;;;;;5004087;28;20064;-67
2023/08/22 01:15:35;;;;;;;11.52;5.65;;;17.10;99.90;;;;;;4986035;28;20057;-67
2023/08/22 01:18:04;;;;;;;11.82;4.80;;;17.00;99.90;;;;;;5003923;28;20112;-67
2023/08/22 01:20:30;;;;;;;14.32;5.93;;;17.10;99.90;;;;;;5004546;28;20046;-67
2023/08/22 01:22:56;;;;;;;10.27;4.88;;;;;;;;;;5002868;28;20048;-67
2023/08/22 01:25:23;;;;;;;10.90;5.03;;;17.10;99.90;;;;;;5002125;28;20046;-68
2023/08/22 01:28:11;;;;;;;8.63;5.13;;;17.00;99.90;;;;;;5003704;28;20215;-67
2023/08/22 01:30:50;;;;;;;12.68;5.63;;;17.00;99.90;;;;;;5000478;28;20042;-67
2023/08/22 01:33:39;;;;;;;9.55;5.18;;;17.00;99.90;;;;;;5001210;28;20042;-67
2023/08/22 01:36:08;;;;;;;11.52;4.97;;;16.90;99.90;;;;;;5003286;28;20046;-67
2023/08/22 01:38:34;;;;;;;11.40;5.38;;;17.00;99.90;;;;;;5002848;28;20048;-67
2023/08/22 01:41:00;;;;;;;12.50;5.90;;;16.90;99.90;;;;;;5004816;28;20069;-67
2023/08/22 01:43:26;;;;;;;10.13;5.75;;;;;;;;;;4983596;28;20046;-67
2023/08/22 01:45:52;;;;;;;13.75;4.70;;;;;;;;;;5004612;28;20115;-67
2023/08/22 01:48:18;;;;;;;9.70;4.53;;;16.90;99.90;;;;;;5003541;28;20488;-67
2023/08/22 01:50:44;;;;;;;7.38;3.88;;;;;;;;;;4986713;28;20041;-67
2023/08/22 01:53:10;;;;;;;9.48;5.05;;;;;;;;;;4982456;28;20049;-67
2023/08/22 01:55:36;;;;;;;9.65;4.10;;;;;;;;;;5002416;28;20042;-67
2023/08/22 01:58:04;;;;;;;13.82;6.28;;;16.70;99.90;;;;;;4983095;28;20042;-67
2023/08/22 02:00:29;;;;;;;8.15;5.18;;;16.80;99.90;;;;;;5004383;28;20037;-67
2023/08/22 02:02:55;;;;;;;13.30;5.07;;;;;;;;;;4985747;28;20041;-67
2023/08/22 02:05:21;;;;;;;10.82;5.55;;;;;;;;;;4982049;28;20053;-67
2023/08/22 02:07:47;;;;;;;11.32;6.47;;;16.80;99.90;;;;;;5003525;28;20046;-67
2023/08/22 02:10:13;;;;;;;17.17;6.03;;;;;;;;;;4983321;28;20128;-67
2023/08/22 02:12:38;;;;;;;12.45;5.95;;;16.80;99.90;;;;;;5000935;28;20058;-67
2023/08/22 02:15:04;;;;;;;14.18;6.38;;;;;;;;;;4981198;28;20053;-67
2023/08/22 02:17:30;;;;;;;16.02;6.80;;;;;;;;;;4985360;28;20053;-67
2023/08/22 02:19:56;;;;;;;12.80;6.60;;;;;;;;;;4966029;28;20038;-67
2023/08/22 02:22:22;;;;;;;12.38;6.60;;;;;;;;;;4985550;28;20049;-67
2023/08/22 02:24:48;;;;;;;16.40;6.70;;;;;;;;;;4999307;28;20052;-67
2023/08/22 02:27:14;;;;;;;13.52;6.70;;;;;;;;;;4983757;28;20104;-68
2023/08/22 02:29:40;;;;;;;11.50;6.60;;;;;;;;;;4983901;28;20053;-67
2023/08/22 02:32:06;;;;;;;9.18;5.05;;;;;;;;;;4985364;28;20069;-67
2023/08/22 02:34:32;;;;;;;16.08;6.32;;;;;;;;;;5003789;28;20112;-67
2023/08/22 02:36:58;;;;;;;15.60;6.45;;;;;;;;;;4985891;28;20050;-67
2023/08/22 02:39:24;;;;;;;10.68;4.93;;;16.90;99.90;;;;;;4988793;28;20054;-67
2023/08/22 02:41:50;;;;;;;10.98;4.90;;;;;;;;;;4986947;28;20045;-68
2023/08/22 02:44:16;;;;;;;9.88;5.40;;;;;;;;;;4984514;28;20037;-67
2023/08/22 02:46:41;;;;;;;10.52;5.03;;;;;;;;;;4988491;28;20123;-67
2023/08/22 02:49:07;;;;;;;10.52;4.60;;;16.60;99.90;;;;;;4983551;28;20049;-67
2023/08/22 02:51:33;;;;;;;10.65;4.80;;;;;;;;;;5010249;28;20041;-67
2023/08/22 02:53:59;;;;;;;7.40;4.68;;;16.50;99.90;;;;;;4987379;28;20044;-67
2023/08/22 02:56:25;;;;;;;9.80;4.75;;;16.60;99.90;;;;;;5006702;28;20037;-67
2023/08/22 02:58:50;;;;;;;8.98;4.80;;;;;;;;;;5007393;28;20038;-67
2023/08/22 03:01:16;;;;;;;10.52;5.05;;;;;;;;;;4985334;28;20057;-67
2023/08/22 03:03:43;;;;;;;8.98;4.88;;;;;;;;;;5007327;28;20056;-67
2023/08/22 03:06:09;;;;;;;5.75;3.75;;;16.10;99.90;;;;;;4998928;28;20132;-67
2023/08/22 03:08:35;;;;;;;7.30;3.50;;;;;;;;;;5004134;28;20145;-67
2023/08/22 03:11:01;;;;;;;7.22;3.50;;;16.40;99.90;;;;;;4986389;28;20046;-67
2023/08/22 03:13:30;;;;;;;5.22;3.40;;;16.10;99.90;;;;;;5005926;28;20053;-67
2023/08/22 03:15:58;;;;;;;7.45;3.33;;;;;;;;;;5002303;28;20052;-67
2023/08/22 03:18:24;;;;;;;7.20;3.58;;;16.10;99.90;;;;;;5006772;28;20818;-67
2023/08/22 03:20:51;;;;;;;6.40;3.55;;;16.00;99.90;;;;;;5006574;28;20124;-68
2023/08/22 03:23:17;;;;;;;5.10;3.30;;;;;;;;;;4973339;28;20049;-68
2023/08/22 03:25:43;;;;;;;9.30;3.78;;;15.90;99.90;;;;;;5005136;28;20060;-67
2023/08/22 03:28:09;;;;;;;6.18;4.20;;;;;;;;;;4987981;28;20053;-67
2023/08/22 03:30:34;;;;;;;10.20;3.78;;;15.80;99.90;;;;;;5004617;28;20045;-67
2023/08/22 03:33:01;;;;;;;6.60;3.17;;;;;;;;;;5006015;28;20401;-67
2023/08/22 03:35:27;;;;;;;6.32;3.33;;;;;;;;;;4988275;28;20046;-67
2023/08/22 03:37:52;;;;;;;6.88;3.60;;;15.70;99.90;;;;;;4986648;28;20053;-67
2023/08/22 03:40:18;;;;;;;4.20;2.97;;;;;;;;;;4987235;28;20037;-67
2023/08/22 03:42:45;;;;;;;3.75;2.80;;;;;;;;;;5004608;28;20748;-67
2023/08/22 03:45:11;;;;;;;4.78;3.00;;;;;;;;;;5004087;28;20111;-67
2023/08/22 03:47:37;;;;;;;3.53;2.70;;;;;;;;;;4983608;28;20049;-67
2023/08/22 03:50:03;;;;;;;5.47;2.85;;;;;;;;;;5003001;28;20053;-68
2023/08/22 03:52:29;;;;;;;6.40;3.25;;;;;;;;;;4984647;28;20529;-67
2023/08/22 03:54:54;;;;;;;7.03;3.47;;;;;;;;;;5002686;28;20107;-67
2023/08/22 03:57:20;;;;;;;5.70;3.53;;;15.50;99.90;;;;;;5004541;28;20042;-67
2023/08/22 03:59:47;;;;;;;5.82;3.35;;;15.60;99.90;;;;;;4970926;28;20057;-67
2023/08/22 04:02:13;;;;;;;5.80;3.25;;;15.40;99.90;;;;;;4985824;28;20807;-67
2023/08/22 04:04:39;;;;;;;5.85;2.50;;;;;;;;;;4985218;28;20092;-67
2023/08/22 04:07:05;;;;;;;4.60;2.38;;;;;;;;;;4987377;28;20153;-67
2023/08/22 04:09:30;;;;;;;6.72;3.13;;;15.30;99.90;;;;;;4970759;28;20046;-67
2023/08/22 04:11:59;;;;;;;8.48;4.45;;;15.20;99.90;;;;;;5001549;28;20057;-67
2023/08/22 04:14:24;;;;;;;8.80;4.65;;;;;;;;;;5005260;28;20136;-67
2023/08/22 04:16:50;;;;;;;11.23;6.43;;;15.50;99.90;;;;;;5002047;28;20048;-67
2023/08/22 04:19:16;;;;;;;6.93;4.85;;;15.40;99.90;;;;;;4988093;28;20052;-67
2023/08/22 04:21:42;;;;;;;3.97;2.40;;;;;;;;;;5005680;28;20184;-67
2023/08/22 04:24:09;;;;;;;4.80;2.60;;;15.30;99.90;;;;;;5005950;28;20038;-67
2023/08/22 04:26:35;;;;;;;5.20;2.28;;;;;;;;;;5005653;28;20061;-67
2023/08/22 04:29:01;;;;;;;5.25;3.35;;;;;;;;;;5003485;28;20467;-67
2023/08/22 04:31:27;;;;;;;5.88;3.00;;;;;;;;;;5003624;28;20042;-67
2023/08/22 04:33:53;;;;;;;5.85;3.33;;;;;;;;;;4986425;28;20107;-67
2023/08/22 04:36:19;;;;;;;4.78;2.80;;;;;;;;;;5005077;28;20041;-67
2023/08/22 04:38:49;;;;;;;6.53;2.40;;;;;;;;;;4986677;28;20041;-67
2023/08/22 04:41:14;;;;;;;3.03;2.10;;;14.90;99.90;;;;;;4979253;28;20089;-67
2023/08/22 04:43:41;;;;;;;2.88;1.75;;;;;;;;;;5004142;28;20046;-67
2023/08/22 04:46:07;;;;;;;2.17;1.90;;;;;;;;;;5006177;28;20739;-67
2023/08/22 04:48:32;;;;;;;3.72;2.05;;;;;;;;;;5004944;28;20148;-68
2023/08/22 04:50:58;;;;;;;2.05;1.85;;;;;;;;;;5003161;28;20439;-67
2023/08/22 04:53:24;;;;;;;1.30;0.85;;;;;;;;;;4984123;28;20072;-67
2023/08/22 04:55:51;;;;;;;1.60;0.90;;;;;;;;;;5002446;28;20757;-67
2023/08/22 04:58:16;;;;;;;2.15;0.60;;;14.60;99.90;;;;;;5004397;28;20124;-67
2023/08/22 05:00:42;;;;;;;2.42;0.82;;;;;;;;;;5001663;28;20504;-67
2023/08/22 05:03:08;;;;;;;3.67;2.17;;;;;;;;;;5001610;28;20123;-67
2023/08/22 05:05:34;;;;;;;2.67;1.80;;;;;;;;;;5003968;28;20416;-68
2023/08/22 05:08:00;;;;;;;2.67;2.03;;;14.40;99.90;;;;;;4984130;28;20104;-67
2023/08/22 05:10:26;;;;;;;3.80;3.17;;;14.40;99.90;;;;;;5004286;28;20045;-67
2023/08/22 05:12:52;;;;;;;4.25;2.50;;;;;;;;;;5002937;28;20073;-67
2023/08/22 05:15:18;;;;;;;4.22;2.05;;;;;;;;;;5002429;28;20053;-67
2023/08/22 05:17:44;;;;;;;3.13;2.08;;;;;;;;;;5003232;28;20511;-67
2023/08/22 05:20:13;;;;;;;4.30;1.80;;;14.70;99.90;;;;;;4985318;28;20050;-67
2023/08/22 05:22:39;;;;;;;2.28;1.50;;;;;;;;;;4964911;28;20551;-67
2023/08/22 05:25:05;;;;;;;1.98;1.40;;;14.90;99.90;;;;;;4986184;28;20132;-67
2023/08/22 05:27:31;;;;;;;5.03;1.15;;;14.90;99.90;;;;;;4984573;28;20048;-67
2023/08/22 05:29:56;;;;;;;4.70;2.35;;;;;;;;;;5002575;28;20049;-67
2023/08/22 05:32:22;;;;;;;3.42;1.70;;;;;;;;;;4984483;28;20046;-67
2023/08/22 05:34:48;;;;;;;3.42;1.60;;;14.90;99.90;;;;;;5003144;28;20042;-67
2023/08/22 05:37:14;;;;;;;3.65;2.08;;;;;;;;;;4985293;28;20053;-67
2023/08/22 05:39:40;;;;;;;7.18;3.17;;;;;;;;;;5004179;28;20117;-67
2023/08/22 05:42:06;;;;;;;5.20;3.08;;;;;;;;;;5002085;28;20811;-67
2023/08/22 05:44:32;;;;;;;8.25;3.45;;;15.50;99.90;;;;;;4983346;28;20049;-67
2023/08/22 05:46:58;;;;;;;8.23;3.97;;;15.60;99.90;;;;;;5003640;28;20042;-67
2023/08/22 05:49:24;;;;;;;8.75;5.35;;;;;;;;;;4981923;28;20044;-67
2023/08/22 05:51:50;;;;;;;22.65;13.07;;;;;;;;;;4986731;28;20124;-68
2023/08/22 05:54:16;;;;;;;19.73;11.27;;;16.00;99.90;;;;;;4983593;28;20037;-67
2023/08/22 05:56:42;;;;;;;11.63;6.70;;;;;;;;;;4980232;28;20042;-68
2023/08/22 05:59:07;;;;;;;11.88;6.32;;;16.20;99.90;;;;;;4983979;28;20130;-68
2023/08/22 06:01:33;;;;;;;10.32;5.63;;;;;;;;;;5003962;28;20096;-67
2023/08/22 06:03:59;;;;;;;9.88;5.30;;;;;;;;;;4981777;28;20042;-68
2023/08/22 06:06:25;;;;;;;10.02;5.43;;;16.50;99.90;;;;;;5003472;28;20133;-68
2023/08/22 06:08:50;;;;;;;12.77;6.18;;;16.70;99.90;;;;;;4981166;28;20054;-67
2023/08/22 06:11:16;;;;;;;8.15;5.70;;;;;;;;;;5002237;28;20044;-68
2023/08/22 06:13:42;;;;;;;10.52;6.30;;;;;;;;;;4989345;28;20134;-68
2023/08/22 06:16:08;;;;;;;8.00;5.57;;;16.90;99.90;;;;;;5007869;28;20326;-67
2023/08/22 06:18:34;;;;;;;8.85;6.28;;;;;;;;;;5005061;28;20045;-68
2023/08/22 06:21:00;;;;;;;9.30;6.43;;;16.90;99.90;;;;;;4989342;28;20535;-68
2023/08/22 06:23:26;;;;;;;8.60;6.25;;;17.00;99.90;;;;;;4986846;28;20670;-68
2023/08/22 06:25:52;;;;;;;9.82;5.95;;;;;;;;;;5008204;28;20038;-68
2023/08/22 06:28:18;;;;;;;8.85;6.15;;;17.10;99.90;;;;;;5006523;28;20037;-68
2023/08/22 06:30:44;;;;;;;10.85;6.32;;;;;;;;;;5006122;28;20033;-69
2023/08/22 06:33:09;;;;;;;9.15;4.47;;;;;;;;;;4990153;28;20038;-68
2023/08/22 06:35:35;;;;;;;6.78;3.00;;;17.40;99.90;;;;;;4989445;28;20078;-68
2023/08/22 06:38:01;;;;;;;5.85;2.97;;;17.60;99.90;;;;;;4989975;28;20037;-68
2023/08/22 06:40:26;;;;;;;11.07;4.13;;;18.40;99.90;;;;;;5005002;28;20057;-68
2023/08/22 06:42:52;;;;;;;8.18;4.53;;;18.30;99.90;;;;;;4987331;28;20045;-72
2023/08/22 06:45:17;;;;;;;9.38;4.43;;;19.20;99.90;;;;;;4988945;28;20038;-67
2023/08/22 06:47:43;;;;;;;6.40;3.47;;;20.80;99.90;;;;;;4989770;28;20061;-67
2023/08/22 06:50:09;;;;;;;8.15;4.03;;;22.00;99.90;;;;;;5004873;28;20053;-68
2023/08/22 06:52:35;;;;;;;9.27;4.25;;;23.40;99.90;;;;;;5003231;28;20149;-68
2023/08/22 06:55:01;;;;;;;8.68;3.42;;;24.10;99.90;;;;;;4990136;28;20492;-68
2023/08/22 06:57:27;;;;;;;9.52;3.92;;;24.80;99.90;;;;;;4989774;28;20037;-68
2023/08/22 06:59:52;;;;;;;9.00;4.78;;;25.00;99.90;;;;;;4989199;28;20037;-68
2023/08/22 07:02:18;;;;;;;9.60;4.38;;;25.90;99.90;;;;;;4987374;28;21160;-68
2023/08/22 07:04:43;;;;;;;6.95;4.43;;;25.60;99.90;;;;;;4988328;28;20540;-68
2023/08/22 07:07:09;;;;;;;10.35;4.43;;;24.70;99.90;;;;;;4973871;28;20571;-68
2023/08/22 07:09:34;;;;;;;7.82;4.13;;;23.70;99.90;;;;;;5004242;28;20614;-68
2023/08/22 07:12:00;;;;;;;10.50;5.45;;;22.80;99.90;;;;;;5006201;28;20062;-68
2023/08/22 07:14:26;;;;;;;10.07;5.35;;;22.20;99.90;;;;;;5004796;28;20125;-67
2023/08/22 07:16:51;;;;;;;12.45;5.35;;;22.00;99.90;;;;;;5003126;28;20049;-67
2023/08/22 07:19:17;;;;;;;8.68;4.88;;;21.50;99.90;;;;;;5003957;28;20044;-68
2023/08/22 07:21:43;;;;;;;11.13;5.00;;;21.50;99.90;;;;;;4984196;28;20132;-68
2023/08/22 07:24:08;;;;;;;11.90;5.88;;;21.10;99.90;;;;;;4984785;28;20042;-68
2023/08/22 07:26:34;;;;;;;13.00;5.75;;;21.10;99.90;;;;;;5003163;28;20096;-68
2023/08/22 07:28:59;;;;;;;11.90;5.63;;;20.80;99.90;;;;;;4984726;28;20050;-68
2023/08/22 07:31:25;;;;;;;9.93;5.22;;;21.10;99.90;;;;;;5006632;28;20038;-67
2023/08/22 07:33:50;;;;;;;8.27;5.10;;;20.80;99.90;;;;;;4986991;28;20475;-68
2023/08/22 07:36:20;;;;;;;11.43;5.55;;;20.60;99.90;;;;;;5002071;28;20694;-68
2023/08/22 07:38:46;;;;;;;11.40;5.35;;;20.80;99.90;;;;;;4987504;28;20075;-68
2023/08/22 07:41:12;;;;;;;7.03;4.80;;;20.70;99.90;;;;;;5003376;28;20041;-68
2023/08/22 07:43:37;;;;;;;10.48;5.57;;;20.50;99.90;;;;;;4987890;28;20131;-69
2023/08/22 07:46:03;;;;;;;8.90;4.65;;;20.70;99.90;;;;;;4988835;28;20694;-69
2023/08/22 07:48:28;;;;;;;11.25;5.25;;;20.70;99.90;;;;;;4988691;28;20504;-69
2023/08/22 07:50:57;;;;;;;5.85;3.80;;;20.60;99.90;;;;;;4985006;28;20053;-68
2023/08/22 07:53:23;;;;;;;6.05;3.78;;;20.70;99.90;;;;;;5003411;28;20046;-69
2023/08/22 07:55:48;;;;;;;7.28;3.60;;;20.60;99.90;;;;;;5006238;28;20389;-68
2023/08/22 07:58:15;;;;;;;8.68;3.72;;;20.40;99.90;;;;;;4986004;28;20089;-69
2023/08/22 08:00:41;;;;;;;8.02;4.00;;;20.80;99.90;;;;;;5005319;28;20042;-69
2023/08/22 08:03:06;;;;;;;6.78;3.40;;;20.40;99.90;;;;;;5006718;28;20052;-69
2023/08/22 08:05:33;;;;;;;8.20;3.53;;;20.70;99.90;;;;;;4984920;28;20541;-68
2023/08/22 08:07:59;;;;;;;7.97;3.83;;;20.80;99.90;;;;;;5003841;28;20046;-70
2023/08/22 08:10:24;;;;;;;9.63;3.55;;;20.70;99.90;;;;;;5004405;28;20065;-69
2023/08/22 08:12:50;;;;;;;8.10;4.07;;;20.70;99.90;;;;;;5003520;28;20104;-70
2023/08/22 08:15:15;;;;;;;8.07;4.22;;;20.90;99.90;;;;;;5005615;28;20045;-70
2023/08/22 08:17:41;;;;;;;7.93;4.28;;;21.90;99.90;;;;;;5005225;28;20046;-70
2023/08/22 08:20:10;;;;;;;15.70;6.47;;;20.40;99.90;;;;;;5006241;28;20038;-70
2023/08/22 08:22:36;;;;;;;10.82;6.22;;;20.90;99.90;;;;;;5003526;28;20035;-70
2023/08/22 08:25:03;;;;;;;10.80;6.00;;;22.60;99.90;;;;;;5003749;28;20496;-70
2023/08/22 08:27:28;;;;;;;11.55;6.20;;;21.00;99.90;;;;;;4985044;28;20092;-69
2023/08/22 08:29:54;;;;;;;12.65;8.10;;;21.20;99.90;;;;;;5000717;28;20037;-69
2023/08/22 08:32:20;;;;;;;13.10;7.65;;;21.20;99.90;;;;;;4983625;28;20120;-69
2023/08/22 08:34:45;;;;;;;13.57;7.88;;;21.20;99.90;;;;;;5003332;28;20381;-69
2023/08/22 08:37:11;;;;;;;16.08;8.23;;;20.90;99.90;;;;;;4985496;28;20065;-68
2023/08/22 08:39:36;;;;;;;14.05;8.80;;;21.40;99.90;;;;;;4982910;28;20057;-69
2023/08/22 08:42:07;;;;;;;13.65;9.48;;;21.20;99.90;;;;;;4981834;28;20555;-69
2023/08/22 08:44:34;;;;;;;15.25;8.55;;;21.20;99.90;;;;;;4985887;28;20046;-69
2023/08/22 08:47:01;;;;;;;19.75;9.85;;;21.40;99.90;;;;;;4984737;28;20038;-68
2023/08/22 08:49:27;;;;;;;16.60;9.02;;;21.50;99.90;;;;;;5001603;28;20037;-69
2023/08/22 08:51:54;;;;;;;13.63;8.57;;;21.50;99.90;;;;;;4995420;28;20042;-68
2023/08/22 08:54:22;;;;;;;12.90;8.18;;;21.50;99.90;;;;;;4998607;28;20053;-69
2023/08/22 08:56:47;;;;;;;14.00;8.82;;;21.40;99.90;;;;;;4999089;28;20092;-69
2023/08/22 08:59:13;;;;;;;13.32;8.05;;;21.60;99.90;;;;;;5005138;28;20073;-68
2023/08/22 09:01:43;;;;;;;18.20;10.45;;;21.60;99.90;;;;;;4985345;28;20033;-69
2023/08/22 09:04:09;;;;;;;12.07;6.70;;;21.40;99.90;;;;;;4985879;28;20046;-68
2023/08/22 09:06:36;;;;;;;12.95;8.23;;;21.90;99.90;;;;;;5002962;28;20769;-68
2023/08/22 09:09:08;;;;;;;13.50;8.98;;;21.80;99.90;;;;;;4987671;28;20124;-68
2023/08/22 09:11:34;;;;;;;15.30;8.90;;;22.10;99.90;;;;;;5001749;28;20041;-69
2023/08/22 09:14:00;;;;;;;11.00;6.70;;;22.00;99.90;;;;;;5000169;28;20054;-68
2023/08/22 09:16:27;;;;;;;8.20;5.68;;;22.10;99.90;;;;;;4985694;28;20056;-68
2023/08/22 09:18:58;;;;;;;10.75;6.32;;;22.00;99.90;;;;;;5003361;28;20046;-68
2023/08/22 09:21:24;;;;;;;12.18;6.18;;;22.10;99.90;;;;;;5000302;28;20385;-69
2023/08/22 09:23:50;;;;;;;12.63;5.72;;;22.60;99.90;;;;;;4999111;28;20049;-68
2023/08/22 09:26:23;;;;;;;11.88;5.35;;;22.40;99.90;;;;;;4996627;28;20072;-68
2023/08/22 09:28:49;;;;;;;9.00;5.18;;;22.50;99.90;;;;;;4997145;28;20041;-68
2023/08/22 09:31:24;;;;;;;10.75;6.03;;;22.60;99.90;;;;;;4981162;28;20186;-68
2023/08/22 09:33:50;;;;;;;10.60;5.35;;;22.50;99.90;;;;;;4982325;28;20050;-68
2023/08/22 09:36:22;;;;;;;13.60;5.20;;;22.70;99.90;;;;;;4982942;28;20085;-69
2023/08/22 09:38:56;;;;;;;8.68;5.57;;;22.70;99.90;;;;;;5001782;28;20042;-69
2023/08/22 09:41:23;;;;;;;10.38;5.43;;;22.80;99.90;;;;;;4998405;28;20607;-68
2023/08/22 09:43:52;;;;;;;11.07;6.30;;;22.40;99.90;;;;;;5001170;28;20048;-68
2023/08/22 09:46:19;;;;;;;8.40;5.38;;;22.60;99.90;;;;;;4996229;28;20798;-69
2023/08/22 09:48:50;;;;;;;10.82;5.63;;;22.60;99.90;;;;;;5004626;28;20038;-68
2023/08/22 09:51:20;;;;;;;9.98;5.05;;;22.60;99.90;;;;;;4984285;28;20050;-69
2023/08/22 09:53:50;;;;;;;8.20;5.35;;;22.90;99.90;;;;;;4978700;28;20057;-68
2023/08/22 09:56:20;;;;;;;9.27;4.70;;;22.60;99.90;;;;;;4997910;28;20053;-68
2023/08/22 09:58:46;;;;;;;9.82;5.40;;;22.80;99.90;;;;;;5000853;28;20117;-69
2023/08/22 10:01:16;;;;;;;9.77;4.40;;;22.90;99.90;;;;;;4987212;28;20168;-69
2023/08/22 10:03:47;;;;;;;10.95;4.82;;;22.90;99.90;;;;;;5003272;28;20129;-69
2023/08/22 10:06:14;;;;;;;11.38;4.75;;;22.90;99.90;;;;;;5000305;28;20042;-69
2023/08/22 10:08:45;;;;;;;9.35;4.97;;;22.80;99.90;;;;;;5001855;28;20069;-69
2023/08/22 10:11:13;;;;;;;6.55;4.25;;;24.10;99.90;;;;;;4982293;28;20557;-69
2023/08/22 10:13:40;;;;;;;9.38;4.05;;;23.20;99.90;;;;;;4995710;28;20511;-68
2023/08/22 10:16:05;;;;;;;9.80;4.25;;;24.90;99.90;;;;;;4977710;28;20457;-69
2023/08/22 10:18:31;;;;;;;9.68;4.57;;;23.10;99.90;;;;;;4996542;28;20125;-69
2023/08/22 10:20:57;;;;;;;6.70;2.28;;;23.20;99.90;;;;;;4985841;28;20471;-69
2023/08/22 10:23:55;;;;;;;5.40;2.33;;;23.30;99.90;;;;;;4995424;28;20049;-69
2023/08/22 10:26:22;;;;;;;6.68;2.60;;;23.10;99.90;;;;;;4971376;28;20477;-69
2023/08/22 10:29:17;;;;;;;8.13;3.20;;;23.10;99.90;;;;;;4993877;28;20038;-69
2023/08/22 10:32:00;;;;;;;4.33;1.90;;;23.20;99.90;;;;;;4998278;28;20467;-69
2023/08/22 10:34:26;;;;;;;3.58;1.17;;;23.30;99.90;;;;;;4981093;28;20231;-69
2023/08/22 10:36:59;;;;;;;1.90;0.50;;;23.40;99.90;;;;;;4981601;28;20070;-69
2023/08/22 10:39:43;;;;;;;3.92;0.82;;;23.50;99.90;;;;;;4991242;28;20045;-69
2023/08/22 10:42:23;;;;;;;1.83;0.80;;;23.40;99.90;;;;;;4995070;28;20397;-69
2023/08/22 10:44:53;;;;;;;4.55;1.05;;;23.40;99.90;;;;;;4998758;28;20057;-69
2023/08/22 10:47:23;;;;;;;5.22;1.40;;;23.60;99.90;;;;;;4985038;28;20050;-69
2023/08/22 10:49:53;;;;;;;6.07;1.33;;;23.40;99.90;;;;;;4978473;28;20054;-69
2023/08/22 10:52:26;;;;;;;4.28;0.93;;;23.40;99.90;;;;;;4984444;28;20104;-69
2023/08/22 10:55:00;;;;;;;5.80;1.00;;;23.10;99.90;;;;;;5003108;28;20516;-69
2023/08/22 10:57:28;;;;;;;5.53;1.20;;;23.60;99.90;;;;;;4977334;28;20121;-69
2023/08/22 10:59:59;;;;;;;4.57;1.10;;;23.70;99.90;;;;;;4985344;28;20046;-69
2023/08/22 11:02:33;;;;;;;5.13;1.27;;;23.80;99.90;;;;;;4998126;28;20497;-69
2023/08/22 11:05:01;;;;;;;2.88;0.98;;;24.00;99.90;;;;;;4980826;28;20089;-69
2023/08/22 11:07:27;;;;;;;3.10;1.10;;;23.70;99.90;;;;;;4984397;28;20054;-69
2023/08/22 11:09:59;;;;;;;6.30;1.67;;;23.50;99.90;;;;;;4985399;28;20050;-69
2023/08/22 11:12:27;;;;;;;4.15;1.60;;;23.60;99.90;;;;;;4986742;28;20050;-68
2023/08/22 11:14:54;;;;;;;4.47;2.20;;;23.70;99.90;;;;;;4971048;28;20049;-69
2023/08/22 11:17:21;;;;;;;7.57;1.77;;;23.70;99.90;;;;;;5005850;28;20034;-69
2023/08/22 11:19:48;;;;;;;7.63;3.10;;;23.60;99.90;;;;;;5005963;28;20041;-69
2023/08/22 11:22:15;;;;;;;10.50;3.58;;;23.50;99.90;;;;;;4985734;28;20046;-69
2023/08/22 11:24:45;;;;;;;12.23;3.78;;;23.80;99.90;;;;;;4987858;28;20050;-69
2023/08/22 11:27:13;;;;;;;8.82;2.97;;;23.80;99.90;;;;;;5008854;28;20095;-69
2023/08/22 11:29:47;;;;;;;8.18;2.90;;;23.60;99.90;;;;;;5007286;28;20129;-69
2023/08/22 11:32:29;;;;;;;5.10;3.28;;;24.70;99.90;;;;;;4985705;28;20077;-69
2023/08/22 11:35:00;;;;;;;6.20;4.25;;;24.00;99.90;;;;;;5006083;28;20112;-69
2023/08/22 11:37:27;;;;;;;8.00;4.80;;;24.40;99.90;;;;;;4984732;28;20073;-70
2023/08/22 11:39:53;;;;;;;7.70;4.75;;;23.80;99.90;;;;;;5005738;28;20037;-70
2023/08/22 11:42:24;;;;;;;7.95;5.07;;;24.00;99.90;;;;;;4982942;28;20126;-70
2023/08/22 11:45:04;;;;;;;7.05;2.95;;;23.80;99.90;;;;;;5006706;28;20045;-70
2023/08/22 11:47:39;;;;;;;10.48;4.63;;;23.90;99.90;;;;;;4998728;28;20143;-70
2023/08/22 11:50:06;;;;;;;7.82;2.75;;;23.70;99.90;;;;;;5006076;28;20724;-70
2023/08/22 11:52:32;;;;;;;8.10;3.10;;;23.70;99.90;;;;;;4981027;28;20042;-70
2023/08/22 11:55:06;;;;;;;6.45;3.35;;;23.30;99.90;;;;;;4998429;28;20084;-70
2023/08/22 11:57:33;;;;;;;;;;;23.60;99.90;;;;;;4982795;28;20057;-70
2023/08/22 12:00:01;;;;;;;7.38;4.05;;;23.80;99.90;;;;;;4985174;28;20634;-70
2023/08/22 12:02:27;;;;;;;7.25;3.90;;;23.80;99.90;;;;;;5003816;28;20069;-70
2023/08/22 12:04:55;;;;;;;7.05;5.43;;;23.80;99.90;;;;;;4993102;28;20277;-70
2023/08/22 12:07:21;;;;;;;9.50;5.03;;;23.60;99.90;;;;;;4998335;28;20037;-70
2023/08/22 12:09:58;;;;;;;8.63;5.13;;;23.90;99.90;;;;;;4978810;28;20382;-71
2023/08/22 12:12:23;;;;;;;10.70;5.20;;;23.70;99.90;;;;;;4994245;28;20141;-70
2023/08/22 12:14:49;;;;;;;7.63;5.32;;;23.80;99.90;;;;;;4978851;28;22017;-70
2023/08/22 12:17:15;;;;;;;8.52;6.03;;;23.70;99.90;;;;;;4999492;28;20404;-70
2023/08/22 12:19:43;;;;;;;10.18;4.60;;;23.90;99.90;;;;;;4986156;28;20405;-70
2023/08/22 12:22:08;;;;;;;7.70;4.93;;;24.00;99.90;;;;;;5007514;28;20195;-70
2023/08/22 12:24:34;;;;;;;9.23;5.63;;;24.00;99.90;;;;;;4980847;28;20144;-70
2023/08/22 12:26:59;;;;;;;10.02;4.78;;;24.00;99.90;;;;;;4997507;28;20038;-70
2023/08/22 12:29:25;;;;;;;8.88;4.55;;;23.90;99.90;;;;;;4998244;28;20128;-70
2023/08/22 12:31:50;;;;;;;4.72;2.80;;;24.00;99.90;;;;;;5004407;28;20099;-70
2023/08/22 12:34:16;;;;;;;7.00;3.47;;;24.20;99.90;;;;;;4998783;28;20038;-71
2023/08/22 12:36:41;;;;;;;8.10;3.30;;;24.10;99.90;;;;;;5002426;28;20207;-70
2023/08/22 12:39:10;;;;;;;9.32;3.10;;;24.00;99.90;;;;;;4987078;28;20049;-70
2023/08/22 12:41:37;;;;;;;7.80;2.20;;;23.90;99.90;;;;;;4981226;28;20117;-70
2023/08/22 12:44:02;;;;;;;9.48;2.90;;;24.20;99.90;;;;;;5002233;28;20377;-70
2023/08/22 12:46:28;;;;;;;6.55;3.38;;;24.20;99.90;;;;;;4974891;28;20053;-70
2023/08/22 12:48:53;;;;;;;9.13;2.75;;;24.20;99.90;;;;;;4984679;28;20213;-70
2023/08/22 12:51:19;;;;;;;7.25;2.70;;;24.10;99.90;;;;;;4982775;28;20702;-70
2023/08/22 12:53:44;;;;;;;7.03;2.35;;;24.00;99.90;;;;;;4997848;28;20064;-70
2023/08/22 12:56:10;;;;;;;6.72;2.30;;;24.30;99.90;;;;;;4997137;28;20037;-70
2023/08/22 12:58:36;;;;;;;5.25;2.00;;;24.10;99.90;;;;;;4984448;28;20072;-71
2023/08/22 13:01:03;;;;;;;5.85;2.38;;;24.00;99.90;;;;;;4999636;28;20408;-71
2023/08/22 13:03:30;;;;;;;7.00;2.25;;;24.20;99.90;;;;;;4984010;28;20049;-70
2023/08/22 13:05:55;;;;;;;7.28;3.30;;;24.50;99.90;;;;;;5003621;28;20095;-70
2023/08/22 13:08:22;;;;;;;6.22;2.40;;;24.60;99.90;;;;;;5005210;28;20045;-71
2023/08/22 13:10:48;;;;;;;8.73;3.00;;;24.40;99.90;;;;;;5002599;28;20072;-70
2023/08/22 13:13:14;;;;;;;9.50;2.75;;;24.30;99.90;;;;;;5004901;28;20057;-71
2023/08/22 13:15:39;;;;;;;12.90;2.92;;;24.40;99.90;;;;;;5003393;28;20511;-70